createdAt,value
2023-03-30T00:01:15.190Z,5.43
2023-03-30T00:03:43.408Z,4.55
2023-03-30T00:06:12.452Z,4.85
2023-03-30T00:08:39.111Z,2.88
2023-03-30T00:11:09.201Z,5.57
2023-03-30T00:13:37.124Z,4.13
2023-03-30T00:16:06.337Z,3.85
2023-03-30T00:18:34.458Z,7.70
2023-03-30T00:21:02.975Z,5.70
2023-03-30T00:23:32.299Z,3.80
2023-03-30T00:25:59.954Z,5.95
2023-03-30T00:28:27.113Z,6.57
2023-03-30T00:30:54.092Z,5.05
2023-03-30T00:33:30.410Z,3.33
2023-03-30T00:36:00.772Z,6.30
2023-03-30T00:38:27.531Z,3.97
2023-03-30T00:40:56.585Z,3.83
2023-03-30T00:43:23.945Z,4.47
2023-03-30T00:45:51.994Z,3.92
2023-03-30T00:48:36.873Z,4.30
2023-03-30T00:51:09.840Z,4.00
2023-03-30T00:53:47.206Z,4.38
2023-03-30T00:56:16.583Z,3.15
2023-03-30T01:01:14.856Z,5.20
2023-03-30T01:03:48.301Z,5.93
2023-03-30T01:06:18.201Z,6.40
2023-03-30T01:08:45.386Z,4.60
2023-03-30T01:11:12.042Z,6.72
2023-03-30T01:13:42.490Z,5.82
2023-03-30T01:16:09.613Z,5.88
2023-03-30T01:18:47.730Z,4.95
2023-03-30T01:21:27.789Z,6.07
2023-03-30T01:24:34.865Z,6.55
2023-03-30T01:27:49.860Z,6.00
2023-03-30T01:30:30.119Z,5.60
2023-03-30T01:33:21.585Z,5.93
2023-03-30T01:36:17.903Z,6.50
2023-03-30T01:38:44.564Z,5.20
2023-03-30T01:41:24.880Z,3.97
2023-03-30T01:43:56.886Z,6.15
2023-03-30T01:46:30.825Z,7.47
2023-03-30T01:49:11.729Z,4.35
2023-03-30T01:51:54.274Z,6.35
2023-03-30T01:54:26.654Z,2.42
2023-03-30T01:56:57.282Z,5.20
2023-03-30T01:59:41.864Z,4.20
2023-03-30T02:02:11.565Z,6.65
2023-03-30T02:04:42.980Z,4.20
2023-03-30T02:07:19.373Z,8.35
2023-03-30T02:09:49.722Z,6.15
2023-03-30T02:12:18.488Z,4.43
2023-03-30T02:14:49.371Z,8.13
2023-03-30T02:17:20.868Z,6.05
2023-03-30T02:19:47.765Z,5.50
2023-03-30T02:22:17.849Z,4.72
2023-03-30T02:24:48.393Z,6.80
2023-03-30T02:27:16.371Z,4.80
2023-03-30T02:29:45.631Z,6.50
2023-03-30T02:32:22.265Z,5.38
2023-03-30T02:34:52.048Z,5.18
2023-03-30T02:37:37.000Z,4.22
2023-03-30T02:40:27.565Z,4.90
2023-03-30T02:43:21.369Z,8.10
2023-03-30T02:45:54.090Z,7.22
2023-03-30T02:48:42.541Z,2.95
2023-03-30T02:51:27.415Z,5.07
2023-03-30T02:53:56.942Z,6.20
2023-03-30T02:56:41.216Z,7.97
2023-03-30T02:59:17.435Z,7.20
2023-03-30T03:01:51.186Z,6.45
2023-03-30T03:04:19.571Z,4.28
2023-03-30T03:06:46.549Z,7.70
2023-03-30T03:09:13.189Z,7.43
2023-03-30T03:11:39.914Z,10.45
2023-03-30T03:14:07.946Z,2.63
2023-03-30T03:16:34.782Z,6.55
2023-03-30T03:19:01.547Z,9.38
2023-03-30T03:21:28.186Z,5.85
2023-03-30T03:23:54.824Z,5.60
2023-03-30T03:26:22.762Z,4.47
2023-03-30T03:28:49.360Z,4.90
2023-03-30T03:31:16.115Z,7.15
2023-03-30T03:33:42.834Z,8.25
2023-03-30T03:36:12.316Z,4.85
2023-03-30T03:38:39.085Z,7.00
2023-03-30T03:41:06.968Z,6.45
2023-03-30T03:43:33.692Z,11.30
2023-03-30T03:46:00.486Z,4.97
2023-03-30T03:48:27.302Z,6.40
2023-03-30T03:50:58.409Z,10.07
2023-03-30T03:53:27.676Z,8.00
2023-03-30T03:55:54.856Z,6.95
2023-03-30T03:58:21.848Z,7.25
2023-03-30T04:00:49.092Z,5.82
2023-03-30T04:03:16.126Z,6.20
2023-03-30T04:05:43.359Z,9.68
2023-03-30T04:08:10.831Z,6.70
2023-03-30T04:10:41.786Z,6.57
2023-03-30T04:13:08.472Z,7.90
2023-03-30T04:15:35.460Z,6.95
2023-03-30T04:18:02.423Z,7.53
2023-03-30T04:20:30.030Z,7.90
2023-03-30T04:22:57.069Z,10.80
2023-03-30T04:25:29.110Z,8.32
2023-03-30T04:27:56.805Z,6.78
2023-03-30T04:30:24.114Z,11.43
2023-03-30T04:33:03.923Z,7.05
2023-03-30T04:35:32.785Z,8.63
2023-03-30T04:38:00.232Z,7.15
2023-03-30T04:40:26.945Z,11.20
2023-03-30T04:42:54.661Z,10.02
2023-03-30T04:45:21.299Z,8.00
2023-03-30T04:47:48.069Z,7.95
2023-03-30T04:50:14.985Z,6.70
2023-03-30T04:52:41.728Z,7.32
2023-03-30T04:55:09.987Z,9.07
2023-03-30T04:57:36.741Z,9.50
2023-03-30T05:00:07.880Z,7.15
2023-03-30T05:02:34.692Z,8.73
2023-03-30T05:05:01.416Z,8.13
2023-03-30T05:07:28.090Z,10.77
2023-03-30T05:09:54.749Z,11.05
2023-03-30T05:12:21.730Z,9.23
2023-03-30T05:14:48.415Z,8.40
2023-03-30T05:17:15.239Z,6.75
2023-03-30T05:19:42.033Z,8.20
2023-03-30T05:22:08.731Z,10.35
2023-03-30T05:24:35.477Z,11.88
2023-03-30T05:27:02.471Z,9.63
2023-03-30T05:29:29.215Z,7.50
2023-03-30T05:31:55.865Z,7.47
2023-03-30T05:34:22.583Z,6.50
2023-03-30T05:36:50.074Z,7.53
2023-03-30T05:39:16.670Z,6.40
2023-03-30T05:41:43.302Z,11.48
2023-03-30T05:44:09.933Z,7.03
2023-03-30T05:46:36.773Z,7.38
2023-03-30T05:49:03.619Z,7.47
2023-03-30T05:51:30.379Z,9.13
2023-03-30T05:53:56.994Z,7.85
2023-03-30T05:56:25.142Z,7.47
2023-03-30T05:58:51.884Z,7.65
2023-03-30T06:01:20.902Z,9.05
2023-03-30T06:03:48.206Z,8.80
2023-03-30T06:06:15.017Z,9.30
2023-03-30T06:08:42.093Z,8.95
2023-03-30T06:11:08.758Z,8.57
2023-03-30T06:13:35.520Z,7.15
2023-03-30T06:16:03.644Z,6.80
2023-03-30T06:18:30.863Z,6.60
2023-03-30T06:20:57.960Z,7.15
2023-03-30T06:23:24.772Z,8.25
2023-03-30T06:25:55.302Z,5.05
2023-03-30T06:28:22.793Z,7.07
2023-03-30T06:30:49.600Z,11.40
2023-03-30T06:33:17.725Z,6.18
2023-03-30T06:35:52.591Z,8.70
2023-03-30T06:38:23.340Z,7.32
2023-03-30T06:40:51.417Z,4.78
2023-03-30T06:43:24.920Z,7.15
2023-03-30T06:45:57.061Z,5.93
2023-03-30T06:48:24.675Z,3.65
2023-03-30T06:50:52.215Z,7.57
2023-03-30T06:53:20.188Z,6.57
2023-03-30T06:55:55.220Z,7.15
2023-03-30T06:58:22.748Z,9.30
2023-03-30T07:00:49.535Z,6.38
2023-03-30T07:03:19.085Z,5.45
2023-03-30T07:05:50.034Z,6.65
2023-03-30T07:08:17.465Z,10.98
2023-03-30T07:10:44.336Z,7.25
2023-03-30T07:13:10.993Z,6.05
2023-03-30T07:15:37.675Z,6.55
2023-03-30T07:18:04.762Z,6.85
2023-03-30T07:20:31.686Z,8.52
2023-03-30T07:22:58.292Z,8.00
2023-03-30T07:25:24.959Z,10.48
2023-03-30T07:27:51.542Z,9.73
2023-03-30T07:30:22.244Z,9.98
2023-03-30T07:32:51.047Z,8.90
2023-03-30T07:35:18.516Z,6.43
2023-03-30T07:37:45.747Z,8.20
2023-03-30T07:40:13.100Z,9.50
2023-03-30T07:42:41.037Z,9.70
2023-03-30T07:45:08.225Z,7.45
2023-03-30T07:47:34.927Z,8.75
2023-03-30T07:50:01.561Z,6.97
2023-03-30T07:52:28.251Z,6.93
2023-03-30T07:54:55.727Z,8.77
2023-03-30T07:57:22.843Z,8.85
2023-03-30T07:59:49.604Z,10.95
2023-03-30T08:02:16.831Z,10.05
2023-03-30T08:04:44.618Z,10.27
2023-03-30T08:07:12.405Z,8.02
2023-03-30T08:09:39.095Z,8.85
2023-03-30T08:12:06.885Z,5.45
2023-03-30T08:14:33.622Z,17.90
2023-03-30T08:17:00.738Z,8.60
2023-03-30T08:19:28.633Z,6.35
2023-03-30T08:21:57.013Z,10.27
2023-03-30T08:24:23.780Z,10.55
2023-03-30T08:26:50.445Z,9.20
2023-03-30T08:29:17.168Z,8.50
2023-03-30T08:31:43.955Z,9.38
2023-03-30T08:34:11.599Z,8.48
2023-03-30T08:36:38.310Z,5.90
2023-03-30T08:39:05.218Z,5.80
2023-03-30T08:42:07.255Z,10.98
2023-03-30T08:44:39.679Z,9.43
2023-03-30T08:47:12.482Z,7.05
2023-03-30T08:49:50.614Z,6.13
2023-03-30T08:52:24.676Z,8.27
2023-03-30T08:54:52.327Z,13.77
2023-03-30T08:57:51.533Z,7.57
2023-03-30T09:00:37.849Z,7.30
2023-03-30T09:03:14.458Z,6.88
2023-03-30T09:06:07.497Z,5.05
2023-03-30T09:08:34.502Z,9.00
2023-03-30T09:11:04.843Z,7.80
2023-03-30T09:13:34.339Z,6.40
2023-03-30T09:18:53.201Z,6.65
2023-03-30T09:21:23.161Z,7.38
2023-03-30T09:23:51.015Z,8.23
2023-03-30T09:26:41.829Z,12.48
2023-03-30T09:29:19.040Z,7.45
2023-03-30T09:31:59.557Z,8.85
2023-03-30T09:34:40.933Z,9.82
2023-03-30T09:37:18.824Z,8.63
2023-03-30T09:42:37.922Z,5.85
2023-03-30T09:45:28.210Z,5.82
2023-03-30T09:47:55.184Z,10.20
2023-03-30T09:50:26.596Z,5.53
2023-03-30T09:53:01.677Z,9.60
2023-03-30T09:55:32.937Z,8.35
2023-03-30T09:58:11.833Z,10.48
2023-03-30T10:00:39.406Z,6.75
2023-03-30T10:03:07.987Z,5.35
2023-03-30T10:05:36.684Z,6.57
2023-03-30T10:08:27.700Z,7.13
2023-03-30T10:10:56.638Z,10.55
2023-03-30T10:13:35.460Z,10.38
2023-03-30T10:16:07.461Z,7.70
2023-03-30T10:18:42.181Z,8.45
2023-03-30T10:21:17.720Z,8.20
2023-03-30T10:23:47.263Z,6.95
2023-03-30T10:26:20.585Z,5.68
2023-03-30T10:29:03.201Z,10.90
2023-03-30T10:31:30.534Z,6.57
2023-03-30T10:33:59.608Z,8.63
2023-03-30T10:36:32.425Z,6.38
2023-03-30T10:39:13.401Z,8.02
2023-03-30T10:41:42.041Z,10.57
2023-03-30T10:44:31.095Z,4.82
2023-03-30T10:47:07.509Z,5.40
2023-03-30T10:49:39.943Z,5.53
2023-03-30T10:52:48.806Z,7.05
2023-03-30T10:55:34.744Z,6.63
2023-03-30T10:58:44.649Z,10.97
2023-03-30T11:01:32.782Z,6.10
2023-03-30T11:04:20.243Z,6.53
2023-03-30T11:06:53.135Z,6.97
2023-03-30T11:09:28.164Z,8.48
2023-03-30T11:12:03.246Z,5.93
2023-03-30T11:14:44.919Z,6.75
2023-03-30T11:17:20.898Z,7.95
2023-03-30T11:19:55.438Z,7.45
2023-03-30T11:22:36.808Z,5.45
2023-03-30T11:25:17.106Z,5.18
2023-03-30T11:27:56.344Z,7.15
2023-03-30T11:30:34.146Z,6.82
2023-03-30T11:33:26.616Z,7.65
2023-03-30T11:36:05.389Z,4.32
2023-03-30T11:39:01.872Z,5.90
2023-03-30T11:41:38.732Z,4.05
2023-03-30T11:44:06.143Z,7.32
2023-03-30T11:46:41.115Z,3.63
2023-03-30T11:49:34.523Z,8.27
2023-03-30T11:52:08.026Z,7.90
2023-03-30T11:55:04.473Z,6.95
2023-03-30T11:57:34.773Z,5.90
2023-03-30T12:00:22.843Z,5.85
2023-03-30T12:03:02.129Z,6.90
2023-03-30T12:05:35.562Z,4.22
2023-03-30T12:08:17.557Z,4.53
2023-03-30T12:10:51.661Z,7.60
2023-03-30T12:13:19.940Z,7.05
2023-03-30T12:15:57.471Z,6.03
2023-03-30T12:18:39.646Z,6.03
2023-03-30T12:21:25.890Z,4.95
2023-03-30T12:24:20.770Z,4.60
2023-03-30T12:27:03.860Z,5.57
2023-03-30T12:32:29.205Z,6.25
2023-03-30T12:37:35.621Z,5.15
2023-03-30T12:40:14.631Z,3.50
2023-03-30T12:42:55.934Z,6.07
2023-03-30T12:45:32.260Z,4.00
2023-03-30T12:48:24.451Z,4.45
2023-03-30T12:51:16.009Z,2.47
2023-03-30T12:54:19.212Z,3.13
2023-03-30T12:56:54.779Z,5.07
2023-03-30T12:59:49.019Z,2.75
2023-03-30T13:02:37.360Z,3.33
2023-03-30T13:05:16.930Z,4.28
2023-03-30T13:07:44.091Z,3.83
2023-03-30T13:10:29.507Z,2.60
2023-03-30T13:12:58.124Z,4.80
2023-03-30T13:15:39.783Z,3.73
2023-03-30T13:18:09.396Z,3.05
2023-03-30T13:20:56.353Z,3.72
2023-03-30T13:23:22.934Z,2.92
2023-03-30T13:26:32.352Z,2.97
2023-03-30T13:29:11.644Z,1.88
2023-03-30T13:32:06.197Z,1.73
2023-03-30T13:34:46.644Z,2.70
2023-03-30T13:38:04.290Z,2.35
2023-03-30T13:40:43.835Z,2.50
2023-03-30T13:43:38.994Z,5.35
2023-03-30T13:46:17.013Z,1.63
2023-03-30T13:49:02.218Z,2.20
2023-03-30T13:51:30.161Z,1.42
2023-03-30T13:54:01.802Z,1.20
2023-03-30T13:56:33.473Z,1.77
2023-03-30T13:59:07.614Z,1.83
2023-03-30T14:01:35.678Z,1.05
2023-03-30T14:04:04.050Z,1.52
2023-03-30T14:06:34.474Z,1.33
2023-03-30T14:09:05.509Z,1.30
2023-03-30T14:11:45.573Z,2.75
2023-03-30T14:14:36.994Z,1.40
2023-03-30T14:17:14.664Z,2.63
2023-03-30T14:19:56.684Z,3.58
2023-03-30T14:22:28.057Z,1.70
2023-03-30T14:25:02.024Z,2.92
2023-03-30T14:27:39.344Z,1.90
2023-03-30T14:30:29.263Z,1.65
2023-03-30T14:33:10.414Z,2.38
2023-03-30T14:35:53.575Z,2.35
2023-03-30T14:38:30.406Z,2.47
2023-03-30T14:40:58.275Z,5.13
2023-03-30T14:43:31.461Z,5.32
2023-03-30T14:46:03.332Z,4.45
2023-03-30T14:48:33.498Z,2.80
2023-03-30T14:51:07.871Z,1.83
2023-03-30T14:53:35.605Z,3.15
2023-03-30T14:56:03.865Z,2.58
2023-03-30T14:58:32.685Z,4.33
2023-03-30T15:01:03.652Z,2.80
2023-03-30T15:03:34.800Z,2.20
2023-03-30T15:06:07.039Z,3.33
2023-03-30T15:08:39.476Z,3.90
2023-03-30T15:11:13.317Z,2.97
2023-03-30T15:13:52.797Z,3.28
2023-03-30T15:16:26.293Z,2.50
2023-03-30T15:18:55.714Z,2.92
2023-03-30T15:23:51.044Z,2.55
2023-03-30T15:26:18.685Z,4.10
2023-03-30T15:28:51.119Z,3.50
2023-03-30T15:31:19.238Z,2.42
2023-03-30T15:33:47.212Z,2.47
2023-03-30T15:36:26.337Z,4.10
2023-03-30T15:38:58.765Z,1.65
2023-03-30T15:41:47.643Z,2.55
2023-03-30T15:44:21.911Z,2.30
2023-03-30T15:46:49.988Z,2.45
2023-03-30T15:49:20.462Z,3.45
2023-03-30T15:51:51.909Z,1.75
2023-03-30T15:54:26.955Z,1.73
2023-03-30T15:56:59.609Z,1.30
2023-03-30T15:59:32.886Z,2.97
2023-03-30T16:02:15.147Z,1.65
2023-03-30T16:04:42.153Z,2.50
2023-03-30T16:07:23.199Z,1.70
2023-03-30T16:09:49.976Z,2.45
2023-03-30T16:12:23.835Z,1.55
2023-03-30T16:14:51.148Z,1.50
2023-03-30T16:17:18.717Z,2.58
2023-03-30T16:19:45.829Z,2.47
2023-03-30T16:22:14.203Z,2.10
2023-03-30T16:24:42.158Z,1.92
2023-03-30T16:27:11.477Z,2.28
2023-03-30T16:29:38.171Z,2.08
2023-03-30T16:32:05.155Z,2.88
2023-03-30T16:34:31.882Z,3.20
2023-03-30T16:36:58.527Z,1.83
2023-03-30T16:39:27.877Z,1.63
2023-03-30T16:41:55.595Z,1.92
2023-03-30T16:44:24.073Z,2.08
2023-03-30T16:46:51.708Z,2.73
2023-03-30T16:49:26.129Z,3.92
2023-03-30T16:51:57.544Z,3.83
2023-03-30T16:54:31.945Z,1.83
2023-03-30T16:57:00.662Z,2.10
2023-03-30T16:59:30.276Z,1.33
2023-03-30T17:01:57.444Z,4.55
2023-03-30T17:04:24.149Z,2.75
2023-03-30T17:06:51.102Z,2.25
2023-03-30T17:09:19.544Z,2.63
2023-03-30T17:11:47.908Z,1.97
2023-03-30T17:14:15.494Z,2.97
2023-03-30T17:16:42.861Z,3.42
2023-03-30T17:19:13.889Z,3.42
2023-03-30T17:21:42.951Z,2.90
2023-03-30T17:24:15.119Z,1.92
2023-03-30T17:26:42.158Z,1.98
2023-03-30T17:29:09.711Z,3.10
2023-03-30T17:31:38.345Z,3.58
2023-03-30T17:34:06.761Z,3.33
2023-03-30T17:36:33.468Z,2.15
2023-03-30T17:39:00.102Z,1.95
2023-03-30T17:41:26.888Z,4.45
2023-03-30T17:43:53.642Z,3.13
2023-03-30T17:46:20.780Z,2.35
2023-03-30T17:48:48.317Z,3.90
2023-03-30T17:51:14.939Z,2.08
2023-03-30T17:53:41.679Z,2.67
2023-03-30T17:56:12.556Z,1.65
2023-03-30T17:58:39.273Z,2.67
2023-03-30T18:01:09.096Z,2.15
2023-03-30T18:03:38.606Z,2.97
2023-03-30T18:06:05.941Z,2.17
2023-03-30T18:08:32.769Z,3.35
2023-03-30T18:11:00.770Z,2.95
2023-03-30T18:13:29.458Z,4.10
2023-03-30T18:15:58.630Z,2.83
2023-03-30T18:18:29.455Z,2.47
2023-03-30T18:21:02.513Z,4.00
2023-03-30T18:23:30.643Z,6.22
2023-03-30T18:25:57.668Z,3.33
2023-03-30T18:28:26.166Z,4.22
2023-03-30T18:30:55.505Z,2.50
2023-03-30T18:33:22.423Z,2.35
2023-03-30T18:35:51.110Z,3.50
2023-03-30T18:38:20.776Z,2.97
2023-03-30T18:40:50.129Z,4.13
2023-03-30T18:43:16.958Z,1.75
2023-03-30T18:45:46.293Z,1.92
2023-03-30T18:50:46.383Z,4.25
2023-03-30T18:53:16.432Z,3.22
2023-03-30T18:55:46.000Z,2.58
2023-03-30T18:58:24.383Z,2.58
2023-03-30T19:00:52.505Z,4.75
2023-03-30T19:03:20.293Z,3.25
2023-03-30T19:05:48.234Z,3.45
2023-03-30T19:08:19.754Z,2.33
2023-03-30T19:10:48.954Z,2.47
2023-03-30T19:13:18.031Z,3.22
2023-03-30T19:15:45.817Z,2.63
2023-03-30T19:18:13.922Z,2.55
2023-03-30T19:20:41.793Z,2.13
2023-03-30T19:23:11.831Z,4.05
2023-03-30T19:25:38.903Z,3.00
2023-03-30T19:28:06.459Z,3.80
2023-03-30T19:30:36.678Z,3.08
2023-03-30T19:33:08.434Z,3.05
2023-03-30T19:35:35.812Z,1.77
2023-03-30T19:38:02.537Z,2.75
2023-03-30T19:40:29.183Z,3.90
2023-03-30T19:42:55.909Z,3.30
2023-03-30T19:45:23.663Z,2.05
2023-03-30T19:47:51.538Z,2.83
2023-03-30T19:50:20.009Z,5.28
2023-03-30T19:52:50.154Z,3.08
2023-03-30T19:55:18.847Z,3.60
2023-03-30T19:57:46.081Z,5.27
2023-03-30T20:00:16.001Z,3.25
2023-03-30T20:02:45.531Z,5.60
2023-03-30T20:07:40.978Z,4.28
2023-03-30T20:10:10.510Z,2.97
2023-03-30T20:12:37.505Z,5.50
2023-03-30T20:15:06.156Z,3.10
2023-03-30T20:17:34.210Z,5.07
2023-03-30T20:20:07.206Z,4.47
2023-03-30T20:22:36.254Z,5.57
2023-03-30T20:25:07.582Z,3.22
2023-03-30T20:27:35.588Z,4.93
2023-03-30T20:30:03.082Z,3.47
2023-03-30T20:32:29.707Z,3.10
2023-03-30T20:34:56.426Z,4.07
2023-03-30T20:37:23.234Z,2.25
2023-03-30T20:39:50.604Z,5.50
2023-03-30T20:42:25.891Z,2.88
2023-03-30T20:44:53.611Z,4.00
2023-03-30T20:47:23.450Z,3.28
2023-03-30T20:49:50.340Z,5.32
2023-03-30T20:52:17.121Z,3.97
2023-03-30T20:54:44.799Z,4.53
2023-03-30T20:57:12.156Z,4.95
2023-03-30T20:59:39.621Z,5.07
2023-03-30T21:02:07.000Z,8.60
2023-03-30T21:04:34.176Z,4.25
2023-03-30T21:07:00.957Z,5.18
2023-03-30T21:09:27.910Z,4.85
2023-03-30T21:11:54.539Z,4.60
2023-03-30T21:14:21.304Z,9.13
2023-03-30T21:16:47.944Z,3.42
2023-03-30T21:19:14.724Z,3.55
2023-03-30T21:21:41.522Z,4.63
2023-03-30T21:24:10.358Z,3.25
2023-03-30T21:26:37.945Z,4.93
2023-03-30T21:29:05.717Z,5.60
2023-03-30T21:31:32.546Z,4.80
2023-03-30T21:34:00.406Z,5.95
2023-03-30T21:36:27.424Z,4.78
2023-03-30T21:38:56.222Z,4.05
2023-03-30T21:41:24.348Z,5.45
2023-03-30T21:43:51.043Z,2.20
2023-03-30T21:46:23.206Z,7.55
2023-03-30T21:48:53.740Z,3.72
2023-03-30T21:51:27.443Z,7.78
2023-03-30T21:53:55.704Z,4.82
2023-03-30T21:56:24.666Z,6.57
2023-03-30T21:58:51.822Z,5.43
2023-03-30T22:01:19.984Z,5.90
2023-03-30T22:03:46.756Z,6.60
2023-03-30T22:06:16.337Z,7.40
2023-03-30T22:08:45.146Z,5.82
2023-03-30T22:11:17.497Z,7.80
2023-03-30T22:13:46.111Z,5.22
2023-03-30T22:16:22.397Z,6.35
2023-03-30T22:18:50.354Z,6.85
2023-03-30T22:21:34.612Z,5.53
2023-03-30T22:24:06.734Z,3.92
2023-03-30T22:26:34.878Z,5.00
2023-03-30T22:29:01.549Z,5.80
2023-03-30T22:31:31.110Z,8.77
2023-03-30T22:33:57.727Z,4.63
2023-03-30T22:36:26.773Z,5.72
2023-03-30T22:38:53.419Z,4.82
2023-03-30T22:41:24.010Z,4.95
2023-03-30T22:43:52.144Z,5.85
2023-03-30T22:46:18.899Z,6.43
2023-03-30T22:48:45.653Z,5.75
2023-03-30T22:51:26.387Z,5.38
2023-03-30T22:53:57.964Z,4.95
2023-03-30T22:56:24.827Z,6.00
2023-03-30T22:58:51.690Z,5.28
2023-03-30T23:01:19.665Z,7.15
2023-03-30T23:03:47.657Z,8.45
2023-03-30T23:06:14.461Z,6.70
2023-03-30T23:08:41.092Z,9.73
2023-03-30T23:11:08.377Z,5.65
2023-03-30T23:13:38.352Z,8.75
2023-03-30T23:16:06.777Z,7.53
2023-03-30T23:18:34.507Z,3.80
2023-03-30T23:21:06.158Z,6.43
2023-03-30T23:23:35.377Z,6.97
2023-03-30T23:26:03.059Z,3.70
2023-03-30T23:28:30.605Z,8.48
2023-03-30T23:30:57.938Z,5.30
2023-03-30T23:33:24.972Z,5.40
2023-03-30T23:35:53.347Z,8.40
2023-03-30T23:38:20.165Z,7.65
2023-03-30T23:40:46.990Z,8.13
2023-03-30T23:43:13.686Z,4.43
2023-03-30T23:45:43.227Z,5.60
2023-03-30T23:48:09.870Z,8.02
2023-03-30T23:50:37.094Z,9.15
2023-03-30T23:53:03.924Z,5.03
2023-03-30T23:55:31.079Z,6.80
2023-03-30T23:57:57.636Z,5.65
